Woodbridge, CT

7:20 AM EDT on August 25, 2016 (GMT -0400)
Round Hill 2 | | Change Station

Elev 680 ft 41.39 °N, 73.00 °W | Updated 3 seconds ago

Scattered Clouds
Scattered Clouds
64.7 °F
Feels Like 64.7 °F
N
0.0
Wind Variable Wind from South
Gusts 1.0 mph

Today
High -- | Low -- °F
--% Chance of Precip.
Yesterday
High -- | Low -- °F
Precip. -- in
Pressure 30.13 in
Visibility 10.0 miles
Clouds Scattered Clouds 25000 ft
Dew Point 64 °F
Humidity 96%
Rainfall 0.00 in
Snow Depth Not available.
6:11 AM 7:35 PM
Waning Gibbous, 46% visible
METAR KHVN 251053Z 00000KT 10SM SCT250 21/18 A3013 RMK AO2 SLP202 T02060178
Pressure 30.13 in
Visibility 10.0 miles
Clouds Scattered Clouds 25000 ft
Dew Point 64 °F
Humidity 96%
Rainfall 0.00 in
Snow Depth Not available.
6:11 AM 7:35 PM
Waning Gibbous, 46% visible
METAR KHVN 251053Z 00000KT 10SM SCT250 21/18 A3013 RMK AO2 SLP202 T02060178

10-Day Weather Forecast

Almanac

Astronomy

Aug. 25, 2016 Rise Set
Actual Time
Civil Twilight
Nautical Twilight
Astronomical Twilight
Moon
Length of Visible Light
Length of Day
Tomorrow will be .
, % of the Moon is Illuminated

Today's Extremes

State Highs State Lows

Community

WunderPhotos

Upload Photos

1,934,822 photos uploaded!

WunderBlog® & News

Nearby

Air Quality

  Air Quality AQ Index Pollutant
Not available.

Snow Depth

Station Depth Elevation

Earthquake Activity

City Distance Mag. Time & Date
Minimum magnitude displayed is 2.5.

Coastal Water Temperatures

Place Temperature

Stations

Nearby Weather Stations

Station Location Temp. Windchill Dew Point Humidity Wind Precip. Elev Updated Type
                   

Watches & Warnings

There are currently no watches in effect.